Time;durP1;ratioP1;P1;durP2;ratioP2;P2;SDS_P1;SDS_P2;PMS_P1;PMS_P2;Temp;Humidity;BMP_temperature;BMP_pressure;BME280_temperature;BME280_humidity;BME280_pressure;Samples;Min_cycle;Max_cycle;Signal;HPM_P1;HPM_P2
2023/01/09 00:01:00;;;;;;;2.87;1.93;;;;;;;;;;5089788;28;20456;-81
2023/01/09 00:03:28;;;;;;;3.73;1.83;;;;;;;;;;5087699;28;20568;-81
2023/01/09 00:06:01;;;;;;;2.73;1.77;;;;;;;;;;5088407;28;20543;-81
2023/01/09 00:08:29;;;;;;;4.47;2.03;;;;;;;;;;5088796;28;20527;-81
2023/01/09 00:10:56;;;;;;;6.33;2.10;;;;;;;;;;5088121;28;20445;-81
2023/01/09 00:13:24;;;;;;;2.93;1.70;;;;;;;;;;5088350;28;20456;-81
2023/01/09 00:15:53;;;;;;;3.27;2.17;;;;;;;;;;5089315;28;20459;-81
2023/01/09 00:18:21;;;;;;;4.10;2.80;;;;;;;;;;5088032;28;20460;-80
2023/01/09 00:20:49;;;;;;;2.43;1.53;;;;;;;;;;5089185;28;20543;-79
2023/01/09 00:23:17;;;;;;;4.33;2.23;;;;;;;;;;5086201;28;20502;-81
2023/01/09 00:25:44;;;;;;;2.77;2.00;;;;;;;;;;5086920;28;20480;-80
2023/01/09 00:28:12;;;;;;;4.40;1.60;;;;;;;;;;5087249;28;20464;-80
2023/01/09 00:30:40;;;;;;;5.23;3.00;;;;;;;;;;5087001;28;20459;-81
2023/01/09 00:33:09;;;;;;;3.10;1.90;;;;;;;;;;5085327;28;20472;-80
2023/01/09 00:35:37;;;;;;;2.60;1.67;;;;;;;;;;5089319;28;20451;-80
2023/01/09 00:38:04;;;;;;;3.23;2.10;;;;;;;;;;5087467;28;20537;-80
2023/01/09 00:40:33;;;;;;;3.00;1.90;;;;;;;;;;5087014;28;20456;-80
2023/01/09 00:43:01;;;;;;;4.30;2.40;;;;;;;;;;5088441;28;20492;-81
2023/01/09 00:45:29;;;;;;;3.60;2.13;;;;;;;;;;5087261;28;20872;-80
2023/01/09 00:48:02;;;;;;;2.60;1.63;;;;;;;;;;5087045;28;20474;-81
2023/01/09 00:50:32;;;;;;;5.60;2.40;;;;;;;;;;5086935;28;20527;-80
2023/01/09 00:53:02;;;;;;;5.73;2.20;;;;;;;;;;5085686;28;20469;-80
2023/01/09 00:55:29;;;;;;;3.00;2.10;;;;;;;;;;5088013;28;20507;-80
2023/01/09 00:57:57;;;;;;;2.67;1.60;;;;;;;;;;5087223;28;20518;-80
2023/01/09 01:00:28;;;;;;;4.23;1.83;;;;;;;;;;5086295;28;20841;-80
2023/01/09 01:03:00;;;;;;;4.90;2.57;;;;;;;;;;5086683;28;20510;-81
2023/01/09 01:08:14;;;;;;;2.40;1.73;;;;;;;;;;5088357;28;20506;-79
2023/01/09 01:10:43;;;;;;;4.53;2.30;;;;;;;;;;5086112;28;20483;-81
2023/01/09 01:13:11;;;;;;;2.70;2.33;;;;;;;;;;5086079;28;20468;-81
2023/01/09 01:15:39;;;;;;;2.30;1.63;;;;;;;;;;5084633;28;20467;-81
2023/01/09 01:18:06;;;;;;;3.43;2.33;;;;;;;;;;5084863;28;20465;-81
2023/01/09 01:20:34;;;;;;;5.30;2.80;;;;;;;;;;5085553;28;20459;-81
2023/01/09 01:23:02;;;;;;;5.00;2.90;;;;;;;;;;5084314;28;20488;-81
2023/01/09 01:25:31;;;;;;;6.50;2.70;;;;;;;;;;5083789;28;20467;-80
2023/01/09 01:27:58;;;;;;;4.20;2.90;;;;;;;;;;5083307;28;20467;-81
2023/01/09 01:30:26;;;;;;;5.60;3.50;;;;;;;;;;5084222;28;20463;-81
2023/01/09 01:32:54;;;;;;;5.80;2.40;;;;;;;;;;5083803;28;20476;-81
2023/01/09 01:35:21;;;;;;;3.50;2.73;;;;;;;;;;5084100;28;20452;-81
2023/01/09 01:37:49;;;;;;;5.73;3.10;;;;;;;;;;5083774;28;20464;-81
2023/01/09 01:40:17;;;;;;;3.20;2.70;;;;;;;;;;5084333;28;20455;-81
2023/01/09 01:42:50;;;;;;;6.73;3.47;;;;;;;;;;5084453;28;20480;-81
2023/01/09 01:45:18;;;;;;;4.43;3.50;;;;;;;;;;5088686;28;20499;-81
2023/01/09 01:48:03;;;;;;;4.13;2.87;;;;;;;;;;5086856;28;20457;-81
2023/01/09 01:50:33;;;;;;;5.57;2.63;;;;;;;;;;5086239;28;20794;-80
2023/01/09 01:53:04;;;;;;;4.00;2.57;;;;;;;;;;5087274;28;20467;-81
2023/01/09 01:55:31;;;;;;;5.20;2.80;;;;;;;;;;5087629;28;20453;-81
2023/01/09 01:58:03;;;;;;;4.63;3.53;;;;;;;;;;5088289;28;20534;-80
2023/01/09 02:00:32;;;;;;;5.90;3.20;;;;;;;;;;5088469;28;20467;-80
2023/01/09 02:03:01;;;;;;;3.37;2.50;;;;;;;;;;5089395;28;20508;-81
2023/01/09 02:05:29;;;;;;;4.80;3.20;;;;;;;;;;5090944;28;20452;-81
2023/01/09 02:07:59;;;;;;;4.13;2.73;;;;;;;;;;5088903;28;20540;-80
2023/01/09 02:10:26;;;;;;;3.93;3.27;;;;;;;;;;5087704;28;20457;-80
2023/01/09 02:12:54;;;;;;;5.27;3.13;;;;;;;;;;5088288;28;20468;-81
2023/01/09 02:15:23;;;;;;;4.90;2.97;;;;;;;;;;5084085;28;20479;-80
2023/01/09 02:17:58;;;;;;;4.70;2.37;;;;;;;;;;5084421;28;20544;-81
2023/01/09 02:20:43;;;;;;;3.83;2.43;;;;;;;;;;5083279;28;20840;-80
2023/01/09 02:23:26;;;;;;;4.70;3.20;;;;;;;;;;5083104;28;20574;-81
2023/01/09 02:26:06;;;;;;;3.60;2.77;;;;;;;;;;5083385;28;20457;-80
2023/01/09 02:28:44;;;;;;;6.10;3.13;;;;;;;;;;5085425;28;20547;-80
2023/01/09 02:31:16;;;;;;;3.63;2.50;;;;;;;;;;5085407;28;20460;-81
2023/01/09 02:33:48;;;;;;;4.00;2.80;;;;;;;;;;5085887;28;20460;-79
2023/01/09 02:36:19;;;;;;;4.97;2.53;;;;;;;;;;5084677;28;20453;-81
2023/01/09 02:38:50;;;;;;;4.30;2.60;;;;;;;;;;5085472;28;20460;-81
2023/01/09 02:41:22;;;;;;;2.90;2.07;;;;;;;;;;5087299;28;20463;-80
2023/01/09 02:44:01;;;;;;;3.70;2.50;;;;;;;;;;5087455;28;20488;-80
2023/01/09 02:46:30;;;;;;;6.60;2.70;;;;;;;;;;5088529;28;20441;-81
2023/01/09 02:48:58;;;;;;;3.80;2.23;;;;;;;;;;5086407;28;20465;-81
2023/01/09 02:51:32;;;;;;;3.07;2.13;;;;;;;;;;5088685;28;20459;-80
2023/01/09 02:54:03;;;;;;;4.80;2.00;;;;;;;;;;5086267;28;20500;-80
2023/01/09 02:56:45;;;;;;;3.17;2.10;;;;;;;;;;5088310;28;20459;-80
2023/01/09 02:59:22;;;;;;;3.77;1.83;;;;;;;;;;5091796;28;20558;-80
2023/01/09 03:01:56;;;;;;;3.00;2.37;;;;;;;;;;5090689;28;20467;-80
2023/01/09 03:04:29;;;;;;;2.60;1.50;;;;;;;;;;5090463;28;20494;-79
2023/01/09 03:06:59;;;;;;;3.70;2.23;;;;;;;;;;5089459;28;20781;-79
2023/01/09 03:09:28;;;;;;;3.80;2.33;;;;;;;;;;5091343;28;20487;-81
2023/01/09 03:12:00;;;;;;;2.67;1.50;;;;;;;;;;5093905;28;20452;-78
2023/01/09 03:14:31;;;;;;;3.50;2.00;;;;;;;;;;5096009;28;20528;-79
2023/01/09 03:17:05;;;;;;;4.27;2.67;;;;;;;;;;5095338;28;20475;-79
2023/01/09 03:19:34;;;;;;;3.80;2.30;;;;;;;;;;5095585;28;20500;-78
2023/01/09 03:22:03;;;;;;;3.87;2.63;;;;;;;;;;5095407;28;20448;-79
2023/01/09 03:24:32;;;;;;;3.17;2.10;;;;;;;;;;5093658;28;20496;-80
2023/01/09 03:27:00;;;;;;;4.60;2.73;;;;;;;;;;5092953;28;20460;-80
2023/01/09 03:29:27;;;;;;;4.77;2.50;;;;;;;;;;5092124;28;20517;-81
2023/01/09 03:31:55;;;;;;;4.40;2.40;;;;;;;;;;5092455;28;20467;-80
2023/01/09 03:34:24;;;;;;;4.10;2.47;;;;;;;;;;5090301;28;20530;-80
2023/01/09 03:36:52;;;;;;;3.90;2.60;;;;;;;;;;5089612;28;20479;-81
2023/01/09 03:39:19;;;;;;;5.23;2.20;;;;;;;;;;5091634;28;20471;-81
2023/01/09 03:41:47;;;;;;;3.80;1.90;;;;;;;;;;5090630;28;20456;-80
2023/01/09 03:44:15;;;;;;;3.73;1.93;;;;;;;;;;5092071;28;20499;-81
2023/01/09 03:46:42;;;;;;;4.67;2.50;;;;;;;;;;5090684;28;20462;-82
2023/01/09 03:49:10;;;;;;;6.90;2.23;;;;;;;;;;5090259;28;20540;-81
2023/01/09 03:51:39;;;;;;;3.70;2.33;;;;;;;;;;5091450;28;20454;-81
2023/01/09 03:54:06;;;;;;;2.90;1.57;;;;;;;;;;5091715;28;20465;-81
2023/01/09 03:56:34;;;;;;;3.07;1.60;;;;;;;;;;5090531;28;20456;-81
2023/01/09 03:59:01;;;;;;;4.53;1.60;;;;;;;;;;5090234;28;20456;-80
2023/01/09 04:01:29;;;;;;;3.20;1.60;;;;;;;;;;5092585;28;20456;-82
2023/01/09 04:03:57;;;;;;;3.40;1.97;;;;;;;;;;5092514;28;20580;-79
2023/01/09 04:06:24;;;;;;;3.87;2.30;;;;;;;;;;5092486;28;20453;-79
2023/01/09 04:08:53;;;;;;;2.53;1.50;;;;;;;;;;5091881;28;20469;-79
2023/01/09 04:11:21;;;;;;;3.80;1.67;;;;;;;;;;5092437;28;20456;-81
2023/01/09 04:13:49;;;;;;;2.23;1.43;;;;;;;;;;5092835;28;20460;-80
2023/01/09 04:16:16;;;;;;;8.07;1.80;;;;;;;;;;5093891;28;20445;-80
2023/01/09 04:18:47;;;;;;;2.37;1.20;;;;;;;;;;5089615;28;20539;-79
2023/01/09 04:21:14;;;;;;;3.00;1.70;;;;;;;;;;5087340;28;20475;-81
2023/01/09 04:23:44;;;;;;;4.17;1.77;;;;;;;;;;5086204;28;21095;-80
2023/01/09 04:26:13;;;;;;;3.10;1.50;;;;;;;;;;5088809;28;20541;-81
2023/01/09 04:28:40;;;;;;;3.27;2.17;;;;;;;;;;5086810;28;20854;-81
2023/01/09 04:31:08;;;;;;;3.13;1.90;;;;;;;;;;5088809;28;20467;-80
2023/01/09 04:33:36;;;;;;;2.50;1.50;;;;;;;;;;5087407;28;20468;-80
2023/01/09 04:36:04;;;;;;;2.97;1.40;;;;;;;;;;5087015;28;20456;-81
2023/01/09 04:38:31;;;;;;;2.20;1.10;;;;;;;;;;5087802;28;20456;-80
2023/01/09 04:40:59;;;;;;;3.80;2.10;;;;;;;;;;5085809;28;20462;-81
2023/01/09 04:43:28;;;;;;;1.87;0.90;;;;;;;;;;5086951;28;20480;-80
2023/01/09 04:45:55;;;;;;;1.90;1.00;;;;;;;;;;5087960;28;20468;-81
2023/01/09 04:48:23;;;;;;;1.50;1.03;;;;;;;;;;5086587;28;20763;-81
2023/01/09 04:50:50;;;;;;;4.33;1.57;;;;;;;;;;5091372;28;20835;-81
2023/01/09 04:53:20;;;;;;;1.63;0.80;;;;;;;;;;5087318;28;20732;-80
2023/01/09 04:55:47;;;;;;;1.80;0.90;;;;;;;;;;5090904;28;20528;-80
2023/01/09 04:58:15;;;;;;;2.37;1.00;;;;;;;;;;5088874;28;20449;-80
2023/01/09 05:00:44;;;;;;;5.03;1.20;;;;;;;;;;5089729;28;20462;-80
2023/01/09 05:03:11;;;;;;;1.80;0.90;;;;;;;;;;5089323;28;20462;-80
2023/01/09 05:05:40;;;;;;;1.37;0.70;;;;;;;;;;5094274;28;20491;-79
2023/01/09 05:08:13;;;;;;;1.90;1.00;;;;;;;;;;5096036;28;20439;-81
2023/01/09 05:10:41;;;;;;;1.93;1.17;;;;;;;;;;5087471;28;20469;-81
2023/01/09 05:13:08;;;;;;;1.53;0.80;;;;;;;;;;5086831;28;20871;-81
2023/01/09 05:15:36;;;;;;;1.40;0.80;;;;;;;;;;5090155;28;20471;-81
2023/01/09 05:18:05;;;;;;;1.53;0.80;;;;;;;;;;5088999;28;20508;-81
2023/01/09 05:20:33;;;;;;;1.20;0.50;;;;;;;;;;5089226;28;20460;-81
2023/01/09 05:23:00;;;;;;;2.00;1.10;;;;;;;;;;5088455;28;20486;-80
2023/01/09 05:25:28;;;;;;;2.57;0.80;;;;;;;;;;5089126;28;20492;-80
2023/01/09 05:27:56;;;;;;;2.03;0.93;;;;;;;;;;5089486;28;20452;-81
2023/01/09 05:30:27;;;;;;;1.77;0.70;;;;;;;;;;5090277;28;20529;-81
2023/01/09 05:32:54;;;;;;;2.17;0.80;;;;;;;;;;5091181;28;20439;-80
2023/01/09 05:35:24;;;;;;;1.30;0.70;;;;;;;;;;5087041;28;20865;-80
2023/01/09 05:37:51;;;;;;;1.60;0.80;;;;;;;;;;5089503;28;20860;-80
2023/01/09 05:40:20;;;;;;;2.40;0.90;;;;;;;;;;5089744;28;20471;-79
2023/01/09 05:42:47;;;;;;;4.50;0.90;;;;;;;;;;5087310;28;20456;-80
2023/01/09 05:45:18;;;;;;;1.80;1.30;;;;;;;;;;5088785;28;20492;-80
2023/01/09 05:47:46;;;;;;;1.70;1.00;;;;;;;;;;5088326;28;20487;-80
2023/01/09 05:50:14;;;;;;;1.47;0.80;;;;;;;;;;5089044;28;20468;-81
2023/01/09 05:52:43;;;;;;;3.30;1.10;;;;;;;;;;5089550;28;20448;-81
2023/01/09 05:55:12;;;;;;;2.00;1.10;;;;;;;;;;5089479;28;20474;-80
2023/01/09 05:57:40;;;;;;;5.97;0.70;;;;;;;;;;5090144;28;20446;-80
2023/01/09 06:00:09;;;;;;;2.17;1.03;;;;;;;;;;5091686;28;20460;-81
2023/01/09 06:02:38;;;;;;;2.23;1.30;;;;;;;;;;5094818;28;20494;-80
2023/01/09 06:05:07;;;;;;;2.33;1.30;;;;;;;;;;5096779;28;20488;-80
2023/01/09 06:07:38;;;;;;;1.90;1.13;;;;;;;;;;5096979;28;20444;-80
2023/01/09 06:10:09;;;;;;;3.07;1.50;;;;;;;;;;5094273;28;20733;-80
2023/01/09 06:12:37;;;;;;;2.27;0.83;;;;;;;;;;5096447;28;20452;-80
2023/01/09 06:15:05;;;;;;;2.07;1.00;;;;;;;;;;5095677;28;20468;-80
2023/01/09 06:17:34;;;;;;;2.23;1.00;;;;;;;;;;5097758;28;20449;-78
2023/01/09 06:20:02;;;;;;;5.17;2.13;;;;;;;;;;5096601;28;20518;-81
2023/01/09 06:22:32;;;;;;;2.30;1.40;;;;;;;;;;5096462;28;20467;-80
2023/01/09 06:24:59;;;;;;;4.23;1.50;;;;;;;;;;5087234;28;20560;-81
2023/01/09 06:27:29;;;;;;;2.20;1.10;;;;;;;;;;5089242;28;20467;-81
2023/01/09 06:29:56;;;;;;;2.73;1.23;;;;;;;;;;5089198;28;20464;-80
2023/01/09 06:32:24;;;;;;;2.33;1.20;;;;;;;;;;5092086;28;20512;-80
2023/01/09 06:34:52;;;;;;;3.20;1.50;;;;;;;;;;5094924;28;20468;-80
2023/01/09 06:37:19;;;;;;;2.60;1.17;;;;;;;;;;5093840;28;20452;-80
2023/01/09 06:39:47;;;;;;;2.00;1.00;;;;;;;;;;5092929;28;20460;-80
2023/01/09 06:42:15;;;;;;;1.90;1.00;;;;;;;;;;5092824;28;20724;-81
2023/01/09 06:44:44;;;;;;;1.90;0.90;;;;;;;;;;5093759;28;20494;-80
2023/01/09 06:47:12;;;;;;;1.90;1.10;;;;;;;;;;5093169;28;20463;-80
2023/01/09 06:49:39;;;;;;;4.50;1.30;;;;;;;;;;5093550;28;20456;-79
2023/01/09 06:52:07;;;;;;;1.70;1.00;;;;;;;;;;5092519;28;20515;-80
2023/01/09 06:54:35;;;;;;;4.70;1.60;;;;;;;;;;5091830;28;20475;-80
2023/01/09 06:57:02;;;;;;;3.47;1.00;;;;;;;;;;5091830;28;20898;-79
2023/01/09 06:59:30;;;;;;;5.40;1.37;;;;;;;;;;5110938;27;20463;-79
2023/01/09 07:01:59;;;;;;;2.13;1.07;;;;;;;;;;5098886;27;20470;-79
2023/01/09 07:04:26;;;;;;;1.87;1.20;;;;;;;;;;5108839;27;20491;-79
2023/01/09 07:06:54;;;;;;;2.10;1.00;;;;;;;;;;5095370;27;20452;-80
2023/01/09 07:09:22;;;;;;;2.03;1.00;;;;;;;;;;5091344;28;20471;-80
2023/01/09 07:11:49;;;;;;;2.57;1.30;;;;;;;;;;5096847;27;20440;-80
2023/01/09 07:14:17;;;;;;;2.60;1.10;;;;;;;;;;5108928;27;20471;-79
2023/01/09 07:16:44;;;;;;;2.73;1.37;;;;;;;;;;5100356;27;20462;-80
2023/01/09 07:19:17;;;;;;;2.80;1.47;;;;;;;;;;5088307;28;20456;-78
2023/01/09 07:21:47;;;;;;;1.87;1.20;;;;;;;;;;5098681;27;20766;-80
2023/01/09 07:24:14;;;;;;;2.67;1.40;;;;;;;;;;5103931;28;20484;-80
2023/01/09 07:26:42;;;;;;;1.90;1.30;;;;;;;;;;5101335;27;20448;-80
2023/01/09 07:29:10;;;;;;;2.40;1.43;;;;;;;;;;5086145;28;20460;-81
2023/01/09 07:31:37;;;;;;;2.40;1.30;;;;;;;;;;5087393;28;20456;-80
2023/01/09 07:34:05;;;;;;;4.83;1.50;;;;;;;;;;5090025;28;20460;-79
2023/01/09 07:36:35;;;;;;;2.30;1.40;;;;;;;;;;5099990;27;20452;-79
2023/01/09 07:39:02;;;;;;;2.50;1.27;;;;;;;;;;5107546;27;20459;-80
2023/01/09 07:41:30;;;;;;;2.37;1.20;;;;;;;;;;5107352;27;20451;-79
2023/01/09 07:43:58;;;;;;;2.43;1.30;;;;;;;;;;5102527;27;20471;-81
2023/01/09 07:46:27;;;;;;;3.23;2.23;;;;;;;;;;5092056;28;20538;-80
2023/01/09 07:48:54;;;;;;;3.00;1.73;;;;;;;;;;5106124;28;20460;-80
2023/01/09 07:51:22;;;;;;;2.70;1.63;;;;;;;;;;5090018;27;20495;-80
2023/01/09 07:53:56;;;;;;;2.87;2.03;;;;;;;;;;5098840;27;20464;-79
2023/01/09 07:56:24;;;;;;;2.63;1.70;;;;;;;;;;5086783;28;20483;-81
2023/01/09 07:58:52;;;;;;;3.00;1.83;;;;;;;;;;5084703;27;20462;-81
2023/01/09 08:01:20;;;;;;;3.37;1.57;;;;;;;;;;5085762;28;20456;-80
2023/01/09 08:03:51;;;;;;;2.67;1.50;;;;;;;;;;5088068;27;20988;-78
2023/01/09 08:06:33;;;;;;;3.53;1.83;;;;;;;;;;5106412;28;20486;-79
2023/01/09 08:09:02;;;;;;;3.37;2.10;;;;;;;;;;5099709;27;20459;-80
2023/01/09 08:11:31;;;;;;;4.63;1.93;;;;;;;;;;5107405;27;20730;-80
2023/01/09 08:13:58;;;;;;;2.80;1.80;;;;;;;;;;5099777;28;20467;-80
2023/01/09 08:16:28;;;;;;;5.07;2.20;;;;;;;;;;5102721;27;20643;-82
2023/01/09 08:18:55;;;;;;;3.20;2.00;;;;;;;;;;5094698;28;20471;-78
2023/01/09 08:21:23;;;;;;;3.17;1.83;;;;;;;;;;5092401;27;20824;-81
2023/01/09 08:23:51;;;;;;;3.00;1.90;;;;;;;;;;5096936;28;20460;-79
2023/01/09 08:26:20;;;;;;;4.13;1.90;;;;;;;;;;5095369;27;20492;-80
2023/01/09 08:28:48;;;;;;;3.20;2.43;;;;;;;;;;5089580;27;20457;-78
2023/01/09 08:31:15;;;;;;;6.07;2.43;;;;;;;;;;5087749;28;20459;-79
2023/01/09 08:33:43;;;;;;;7.70;3.33;;;;;;;;;;5099040;28;20880;-79
2023/01/09 08:36:11;;;;;;;8.47;4.97;;;;;;;;;;5096100;27;20848;-79
2023/01/09 08:38:38;;;;;;;5.60;3.00;;;;;;;;;;5094562;27;20452;-79
2023/01/09 08:49:18;;;;;;;10.00;4.43;;;;;;;;;;5071778;28;20436;-79
2023/01/09 08:51:46;;;;;;;9.33;3.43;;;;;;;;;;5082364;28;20468;-79
2023/01/09 08:54:16;;;;;;;7.50;3.30;;;;;;;;;;5087095;28;20461;-79
2023/01/09 08:56:47;;;;;;;3.90;2.50;;;;;;;;;;5086574;27;20470;-80
2023/01/09 08:59:16;;;;;;;5.13;3.50;;;;;;;;;;5100193;27;20467;-81
2023/01/09 09:01:47;;;;;;;7.67;4.93;;;;;;;;;;5100958;28;20462;-81
2023/01/09 09:04:15;;;;;;;8.07;3.70;;;;;;;;;;5102282;27;20475;-80
2023/01/09 09:06:45;;;;;;;4.03;2.83;;;;;;;;;;5088458;28;21015;-81
2023/01/09 09:09:13;;;;;;;5.47;4.20;;;;;;;;;;5099718;28;21061;-79
2023/01/09 09:11:41;;;;;;;8.60;3.40;;;;;;;;;;5092272;28;20439;-80
2023/01/09 09:16:54;;;;;;;11.70;7.33;;;;;;;;;;5101333;27;20520;-77
2023/01/09 09:19:28;;;;;;;10.27;4.07;;;;;;;;;;5094499;27;20453;-79
2023/01/09 09:21:56;;;;;;;4.57;3.27;;;;;;;;;;5105640;28;20456;-79
2023/01/09 09:24:25;;;;;;;11.93;3.80;;;;;;;;;;5097758;28;20517;-81
2023/01/09 09:26:52;;;;;;;6.50;3.40;;;;;;;;;;5097678;28;20432;-82
2023/01/09 09:29:20;;;;;;;7.70;4.37;;;;;;;;;;5100165;27;20456;-83
2023/01/09 09:31:50;;;;;;;7.43;3.50;;;;;;;;;;5099454;28;20464;-78
2023/01/09 09:34:22;;;;;;;9.47;3.00;;;;;;;;;;5093714;28;20456;-78
2023/01/09 09:36:49;;;;;;;8.20;3.50;;;;;;;;;;5097126;28;20452;-81
2023/01/09 09:39:17;;;;;;;6.53;3.17;;;;;;;;;;5089379;28;20459;-81
2023/01/09 09:44:49;;;;;;;7.70;3.30;;;;;;;;;;5093824;28;20448;-80
2023/01/09 09:47:24;;;;;;;5.70;3.53;;;;;;;;;;5090118;28;20840;-77
2023/01/09 09:49:58;;;;;;;5.33;3.50;;;;;;;;;;5091175;28;20864;-80
2023/01/09 09:52:32;;;;;;;5.43;4.23;;;;;;;;;;5091491;28;20554;-79
2023/01/09 09:55:03;;;;;;;4.83;3.37;;;;;;;;;;5094847;28;20460;-80
2023/01/09 09:57:33;;;;;;;8.03;3.70;;;;;;;;;;5099129;27;20456;-79
2023/01/09 10:00:04;;;;;;;7.00;3.03;;;;;;;;;;5095660;28;20470;-81
2023/01/09 10:02:50;;;;;;;6.00;3.03;;;;;;;;;;5097026;28;20518;-80
2023/01/09 10:05:22;;;;;;;4.37;3.10;;;;;;;;;;5098924;28;20770;-79
2023/01/09 10:07:57;;;;;;;7.50;2.97;;;;;;;;;;5094112;28;20494;-81
2023/01/09 10:10:28;;;;;;;5.50;3.23;;;;;;;;;;5081744;28;20451;-80
2023/01/09 10:14:03;;;;;;;8.10;3.50;;;;;;;;;;5100561;28;20480;-79
2023/01/09 10:15:53;;;;;;;8.50;3.10;;;;;;;;;;5102177;27;20462;-79
2023/01/09 10:19:03;;;;;;;7.00;4.57;;;;;;;;;;5095748;28;20757;-79
2023/01/09 10:21:39;;;;;;;10.00;4.03;;;;;;;;;;5003288;28;20452;-78
2023/01/09 10:24:23;;;;;;;4.60;2.90;;;;;;;;;;5098402;28;20511;-79
2023/01/09 10:27:02;;;;;;;6.20;3.37;;;;;;;;;;5100255;28;20476;-80
2023/01/09 10:29:37;;;;;;;4.87;3.23;;;;;;;;;;5098701;28;20532;-80
2023/01/09 10:32:13;;;;;;;7.00;3.20;;;;;;;;;;5085565;28;20452;-79
2023/01/09 10:34:46;;;;;;;4.20;2.97;;;;;;;;;;5084676;28;20456;-80
2023/01/09 10:37:17;;;;;;;7.93;4.00;;;;;;;;;;5089896;28;20445;-80
2023/01/09 10:39:47;;;;;;;6.40;3.60;;;;;;;;;;5083755;28;20456;-79
2023/01/09 10:42:19;;;;;;;6.27;2.80;;;;;;;;;;5097044;28;20457;-80
2023/01/09 10:44:55;;;;;;;11.33;4.90;;;;;;;;;;5092301;28;20456;-79
2023/01/09 10:47:28;;;;;;;7.03;3.43;;;;;;;;;;5100905;28;20453;-80
2023/01/09 10:49:57;;;;;;;10.00;4.30;;;;;;;;;;5090047;28;20527;-80
2023/01/09 10:52:30;;;;;;;3.97;3.57;;;;;;;;;;5087016;28;20471;-80
2023/01/09 10:55:04;;;;;;;6.00;4.53;;;;;;;;;;5088955;28;20459;-80
2023/01/09 10:57:39;;;;;;;7.20;3.53;;;;;;;;;;5094180;28;20550;-79
2023/01/09 11:00:08;;;;;;;13.13;4.50;;;;;;;;;;5084499;28;20487;-79
2023/01/09 11:02:36;;;;;;;8.23;4.30;;;;;;;;;;5094661;28;20788;-79
2023/01/09 11:05:05;;;;;;;6.70;3.83;;;;;;;;;;5088354;28;20476;-80
2023/01/09 11:07:38;;;;;;;6.10;3.90;;;;;;;;;;5100374;28;20464;-80
2023/01/09 11:10:10;;;;;;;7.07;3.40;;;;;;;;;;5084173;28;20448;-77
2023/01/09 11:12:38;;;;;;;9.70;3.97;;;;;;;;;;5085178;28;20528;-77
2023/01/09 11:15:27;;;;;;;16.33;7.53;;;;;;;;;;5094958;28;20541;-79
2023/01/09 11:17:56;;;;;;;5.50;3.90;;;;;;;;;;5084816;28;20521;-80
2023/01/09 11:20:26;;;;;;;7.50;4.57;;;;;;;;;;5094101;27;20536;-79
2023/01/09 11:22:56;;;;;;;4.60;2.77;;;;;;;;;;5085842;28;20483;-79
2023/01/09 11:25:25;;;;;;;10.67;4.80;;;;;;;;;;5090046;27;20475;-78
2023/01/09 11:28:04;;;;;;;4.97;3.47;;;;;;;;;;5087647;27;20892;-79
2023/01/09 11:30:33;;;;;;;7.53;3.80;;;;;;;;;;5090610;27;20536;-79
2023/01/09 11:33:02;;;;;;;6.00;2.60;;;;;;;;;;5098911;27;20489;-78
2023/01/09 11:35:30;;;;;;;4.30;2.90;;;;;;;;;;5090313;28;20455;-79
2023/01/09 11:38:02;;;;;;;6.53;2.27;;;;;;;;;;5092516;28;20508;-79
2023/01/09 11:40:34;;;;;;;8.20;2.70;;;;;;;;;;5098914;28;20459;-78
2023/01/09 11:43:05;;;;;;;5.33;3.03;;;;;;;;;;5086363;28;20464;-80
2023/01/09 11:45:35;;;;;;;4.57;2.70;;;;;;;;;;5068147;28;20480;-79
2023/01/09 11:48:05;;;;;;;4.57;2.13;;;;;;;;;;5088881;28;20759;-78
2023/01/09 11:50:35;;;;;;;6.10;2.10;;;;;;;;;;5090693;28;20460;-80
2023/01/09 11:53:20;;;;;;;5.53;2.20;;;;;;;;;;5100267;27;20464;-79
2023/01/09 11:55:57;;;;;;;3.10;2.10;;;;;;;;;;5094539;28;20463;-79
2023/01/09 11:58:28;;;;;;;7.00;4.27;;;;;;;;;;5096923;27;20456;-80
2023/01/09 12:01:00;;;;;;;6.70;2.20;;;;;;;;;;5092335;28;20459;-83
2023/01/09 12:03:38;;;;;;;4.10;2.20;;;;;;;;;;5085679;28;20464;-81
2023/01/09 12:06:09;;;;;;;6.93;3.23;;;;;;;;;;5081356;27;20862;-82
2023/01/09 12:08:42;;;;;;;6.40;2.20;;;;;;;;;;5083845;28;20464;-81
2023/01/09 12:11:20;;;;;;;4.07;2.67;;;;;;;;;;5096193;28;20560;-80
2023/01/09 12:13:55;;;;;;;6.47;3.00;;;;;;;;;;5081627;28;20449;-81
2023/01/09 12:16:28;;;;;;;9.17;3.50;;;;;;;;;;5079941;28;20448;-80
2023/01/09 12:19:03;;;;;;;8.97;3.80;;;;;;;;;;5080361;28;20802;-81
2023/01/09 12:21:34;;;;;;;5.57;3.30;;;;;;;;;;5085626;27;20530;-81
2023/01/09 12:24:20;;;;;;;4.30;2.90;;;;;;;;;;5088193;28;20452;-80
2023/01/09 12:26:55;;;;;;;6.07;2.37;;;;;;;;;;5091685;27;20480;-80
2023/01/09 12:29:30;;;;;;;2.93;1.90;;;;;;;;;;5085386;28;20475;-79
2023/01/09 12:32:05;;;;;;;11.47;3.40;;;;;;;;;;5085369;27;20777;-81
2023/01/09 12:34:41;;;;;;;5.70;3.23;;;;;;;;;;5085499;28;20464;-82
2023/01/09 12:37:16;;;;;;;6.10;3.20;;;;;;;;;;5094493;27;20890;-79
2023/01/09 12:39:52;;;;;;;11.83;3.17;;;;;;;;;;5091290;27;20468;-80
2023/01/09 12:42:32;;;;;;;23.43;3.57;;;;;;;;;;5094413;28;20504;-79
2023/01/09 12:45:02;;;;;;;6.83;3.20;;;;;;;;;;5084396;28;20539;-79
2023/01/09 12:47:51;;;;;;;3.67;2.57;;;;;;;;;;5090505;28;20482;-77
2023/01/09 12:50:33;;;;;;;6.07;2.90;;;;;;;;;;5089846;28;21132;-80
2023/01/09 12:53:50;;;;;;;7.37;4.00;;;;;;;;;;5091276;27;20459;-78
2023/01/09 12:56:23;;;;;;;3.03;2.07;;;;;;;;;;5075527;28;20512;-80
2023/01/09 12:59:29;;;;;;;4.23;2.20;;;;;;;;;;5088634;27;20457;-78
2023/01/09 13:02:02;;;;;;;9.87;2.57;;;;;;;;;;5085092;28;20745;-79
2023/01/09 13:05:04;;;;;;;6.10;2.90;;;;;;;;;;5086181;27;20539;-80
2023/01/09 13:07:34;;;;;;;6.00;2.50;;;;;;;;;;5083761;27;20485;-78
2023/01/09 13:10:05;;;;;;;6.50;3.57;;;;;;;;;;5093184;28;20456;-79
2023/01/09 13:12:38;;;;;;;6.30;2.60;;;;;;;;;;5092696;28;21014;-79
2023/01/09 13:15:16;;;;;;;15.50;4.03;;;;;;;;;;5082776;28;20888;-78
2023/01/09 13:17:50;;;;;;;7.60;3.60;;;;;;;;;;5096158;27;20478;-79
2023/01/09 13:20:21;;;;;;;6.20;2.67;;;;;;;;;;5091876;27;20730;-79
2023/01/09 13:22:51;;;;;;;6.07;2.70;;;;;;;;;;5089720;28;21084;-79
2023/01/09 13:25:34;;;;;;;4.80;3.00;;;;;;;;;;5092657;28;20469;-79
2023/01/09 13:28:13;;;;;;;8.63;1.70;;;;;;;;;;5083205;27;20605;-79
2023/01/09 13:30:52;;;;;;;5.17;2.37;;;;;;;;;;5089053;28;20459;-79
2023/01/09 13:33:25;;;;;;;4.00;2.40;;;;;;;;;;5090054;28;20538;-81
2023/01/09 13:35:56;;;;;;;6.53;2.60;;;;;;;;;;5090515;28;20465;-78
2023/01/09 13:38:29;;;;;;;8.10;2.43;;;;;;;;;;5092317;27;22144;-78
2023/01/09 13:43:57;;;;;;;6.30;2.33;;;;;;;;;;5089535;28;20448;-80
2023/01/09 13:46:38;;;;;;;4.43;2.37;;;;;;;;;;5085645;28;20583;-78
2023/01/09 13:49:07;;;;;;;7.43;2.43;;;;;;;;;;5085025;27;20488;-79
2023/01/09 13:52:03;;;;;;;6.03;2.97;;;;;;;;;;5082050;28;20457;-79
2023/01/09 13:54:54;;;;;;;4.30;2.60;;;;;;;;;;5087383;28;20449;-78
2023/01/09 13:57:28;;;;;;;3.90;2.07;;;;;;;;;;5087437;28;20717;-79
2023/01/09 13:59:59;;;;;;;5.57;2.30;;;;;;;;;;5086605;28;20896;-78
2023/01/09 14:02:48;;;;;;;2.70;1.53;;;;;;;;;;5090394;28;20521;-79
2023/01/09 14:05:47;;;;;;;5.40;2.50;;;;;;;;;;5095616;28;20498;-81
2023/01/09 14:08:18;;;;;;;6.60;2.53;;;;;;;;;;5097185;28;20515;-78
2023/01/09 14:10:48;;;;;;;6.00;3.20;;;;;;;;;;5094486;28;20456;-80
2023/01/09 14:13:30;;;;;;;42.53;27.73;;;;;;;;;;5094561;28;20472;-79
2023/01/09 14:16:04;;;;;;;11.97;5.03;;;;;;;;;;5082395;28;20463;-78
2023/01/09 14:18:33;;;;;;;5.00;2.47;;;;;;;;;;5093200;28;20501;-78
2023/01/09 14:21:05;;;;;;;5.33;2.83;;;;;;;;;;5085916;28;20788;-79
2023/01/09 14:23:35;;;;;;;61.20;35.77;;;;;;;;;;5082398;28;20475;-79
2023/01/09 14:26:26;;;;;;;4.00;2.40;;;;;;;;;;5083489;28;20463;-79
2023/01/09 14:29:14;;;;;;;8.77;3.13;;;;;;;;;;5086992;28;20464;-79
2023/01/09 14:31:42;;;;;;;6.30;3.30;;;;;;;;;;5086118;28;20475;-78
2023/01/09 14:34:28;;;;;;;4.73;2.67;;;;;;;;;;5089365;28;20472;-79
2023/01/09 14:36:59;;;;;;;6.00;2.90;;;;;;;;;;5080889;28;20460;-79
2023/01/09 14:39:34;;;;;;;7.20;3.60;;;;;;;;;;5093697;28;20452;-79
2023/01/09 14:42:14;;;;;;;7.20;3.83;;;;;;;;;;5084435;28;20440;-80
2023/01/09 14:48:00;;;;;;;7.90;4.10;;;;;;;;;;5082419;28;20488;-79
2023/01/09 14:50:34;;;;;;;9.13;3.20;;;;;;;;;;5060921;28;20454;-79
2023/01/09 14:53:16;;;;;;;7.00;3.90;;;;;;;;;;5057638;28;20462;-78
2023/01/09 14:55:56;;;;;;;9.50;3.60;;;;;;;;;;5050391;28;20481;-78
2023/01/09 14:58:34;;;;;;;4.67;3.20;;;;;;;;;;5046923;28;20979;-80
2023/01/09 15:01:04;;;;;;;9.80;3.80;;;;;;;;;;5045632;28;20502;-79
2023/01/09 15:03:35;;;;;;;5.40;2.90;;;;;;;;;;5045350;28;20465;-80
2023/01/09 15:06:04;;;;;;;6.97;3.47;;;;;;;;;;5044934;28;20519;-79
2023/01/09 15:08:39;;;;;;;5.50;2.70;;;;;;;;;;5060605;28;20519;-80
2023/01/09 15:11:08;;;;;;;6.07;3.73;;;;;;;;;;5048950;28;20449;-79
2023/01/09 15:13:43;;;;;;;5.40;3.20;;;;;;;;;;5060735;28;20496;-80
2023/01/09 15:16:17;;;;;;;7.43;2.90;;;;;;;;;;5072390;28;20447;-81
2023/01/09 15:18:54;;;;;;;3.40;2.00;;;;;;;;;;5053195;28;20470;-81
2023/01/09 15:21:30;;;;;;;8.77;3.33;;;;;;;;;;5060108;28;20460;-80
2023/01/09 15:24:13;;;;;;;6.47;2.60;;;;;;;;;;5064167;28;20464;-80
2023/01/09 15:26:42;;;;;;;8.47;3.30;;;;;;;;;;5070485;28;20504;-81
2023/01/09 15:29:16;;;;;;;4.20;3.07;;;;;;;;;;5056942;28;20483;-82
2023/01/09 15:31:48;;;;;;;12.33;3.40;;;;;;;;;;5048709;28;20885;-79